sensor_id;sensor_type;location;lat;lon;timestamp;temperature;humidity
15922;DHT22;8060;50.948;3.146;2023-04-03T08:29:25;9.80;99.90
15922;DHT22;8060;50.948;3.146;2023-04-03T08:31:53;10.10;99.90
15922;DHT22;8060;50.948;3.146;2023-04-03T08:34:22;10.30;99.90
15922;DHT22;8060;50.948;3.146;2023-04-03T08:36:50;10.50;99.90
15922;DHT22;8060;50.948;3.146;2023-04-03T08:39:18;10.60;99.90
15922;DHT22;8060;50.948;3.146;2023-04-03T08:41:47;10.70;99.90
15922;DHT22;8060;50.948;3.146;2023-04-03T08:44:23;10.90;99.90
15922;DHT22;8060;50.948;3.146;2023-04-03T08:47:02;11.10;99.90
15922;DHT22;8060;50.948;3.146;2023-04-03T08:49:35;11.30;99.90
15922;DHT22;8060;50.948;3.146;2023-04-03T08:52:10;11.40;99.90
15922;DHT22;8060;50.948;3.146;2023-04-03T08:54:49;11.70;99.90
15922;DHT22;8060;50.948;3.146;2023-04-03T08:57:24;11.80;99.90
15922;DHT22;8060;50.948;3.146;2023-04-03T08:59:54;11.90;99.90
15922;DHT22;8060;50.948;3.146;2023-04-03T09:02:28;11.90;99.90
15922;DHT22;8060;50.948;3.146;2023-04-03T09:05:01;12.00;99.90
15922;DHT22;8060;50.948;3.146;2023-04-03T09:07:36;12.20;99.90
15922;DHT22;8060;50.948;3.146;2023-04-03T09:10:07;12.30;99.90
15922;DHT22;8060;50.948;3.146;2023-04-03T09:12:38;12.30;99.90
15922;DHT22;8060;50.948;3.146;2023-04-03T09:15:16;12.40;99.90
15922;DHT22;8060;50.948;3.146;2023-04-03T09:18:06;12.60;99.90
15922;DHT22;8060;50.948;3.146;2023-04-03T09:20:44;12.90;99.90
15922;DHT22;8060;50.948;3.146;2023-04-03T09:23:18;13.00;99.90
15922;DHT22;8060;50.948;3.146;2023-04-03T09:25:47;13.10;99.90
15922;DHT22;8060;50.948;3.146;2023-04-03T09:28:16;13.00;99.90
15922;DHT22;8060;50.948;3.146;2023-04-03T09:30:45;13.00;99.90
15922;DHT22;8060;50.948;3.146;2023-04-03T09:33:16;13.10;99.90
15922;DHT22;8060;50.948;3.146;2023-04-03T09:35:45;13.10;99.90
15922;DHT22;8060;50.948;3.146;2023-04-03T09:38:18;13.20;99.90
15922;DHT22;8060;50.948;3.146;2023-04-03T09:40:48;13.40;99.90
15922;DHT22;8060;50.948;3.146;2023-04-03T09:43:26;13.50;99.90
15922;DHT22;8060;50.948;3.146;2023-04-03T09:45:56;13.60;99.90
15922;DHT22;8060;50.948;3.146;2023-04-03T09:48:56;13.80;99.90
15922;DHT22;8060;50.948;3.146;2023-04-03T09:51:36;14.00;99.90
15922;DHT22;8060;50.948;3.146;2023-04-03T09:54:26;14.00;99.90
15922;DHT22;8060;50.948;3.146;2023-04-03T09:56:55;14.00;99.90
15922;DHT22;8060;50.948;3.146;2023-04-03T09:59:26;13.80;99.90
15922;DHT22;8060;50.948;3.146;2023-04-03T10:01:59;13.80;99.90
15922;DHT22;8060;50.948;3.146;2023-04-03T10:04:37;13.80;99.90
15922;DHT22;8060;50.948;3.146;2023-04-03T10:07:31;13.90;99.90
15922;DHT22;8060;50.948;3.146;2023-04-03T10:10:02;14.00;99.90
15922;DHT22;8060;50.948;3.146;2023-04-03T10:12:31;14.20;99.90
15922;DHT22;8060;50.948;3.146;2023-04-03T10:15:00;14.20;99.90
15922;DHT22;8060;50.948;3.146;2023-04-03T10:17:39;14.40;99.90
15922;DHT22;8060;50.948;3.146;2023-04-03T10:20:26;14.40;99.90
15922;DHT22;8060;50.948;3.146;2023-04-03T10:23:15;14.60;99.90
15922;DHT22;8060;50.948;3.146;2023-04-03T10:25:59;14.70;99.90
15922;DHT22;8060;50.948;3.146;2023-04-03T10:28:35;14.60;99.90
15922;DHT22;8060;50.948;3.146;2023-04-03T10:31:14;14.70;99.90
15922;DHT22;8060;50.948;3.146;2023-04-03T10:33:53;14.70;99.90
15922;DHT22;8060;50.948;3.146;2023-04-03T10:36:34;14.90;99.90
15922;DHT22;8060;50.948;3.146;2023-04-03T10:39:14;15.00;99.90
15922;DHT22;8060;50.948;3.146;2023-04-03T10:42:00;15.00;99.90
15922;DHT22;8060;50.948;3.146;2023-04-03T10:44:56;15.30;99.90
15922;DHT22;8060;50.948;3.146;2023-04-03T10:47:30;15.30;99.90
15922;DHT22;8060;50.948;3.146;2023-04-03T10:50:15;15.40;99.90
15922;DHT22;8060;50.948;3.146;2023-04-03T10:52:57;15.60;99.90
15922;DHT22;8060;50.948;3.146;2023-04-03T10:55:34;15.70;99.90
15922;DHT22;8060;50.948;3.146;2023-04-03T10:58:05;15.80;99.90
15922;DHT22;8060;50.948;3.146;2023-04-03T11:00:37;16.10;99.90
15922;DHT22;8060;50.948;3.146;2023-04-03T11:03:12;16.20;99.90
15922;DHT22;8060;50.948;3.146;2023-04-03T11:05:43;16.30;99.90
15922;DHT22;8060;50.948;3.146;2023-04-03T11:08:21;16.20;99.90
15922;DHT22;8060;50.948;3.146;2023-04-03T11:10:56;16.10;99.90
15922;DHT22;8060;50.948;3.146;2023-04-03T11:13:30;16.00;99.90
15922;DHT22;8060;50.948;3.146;2023-04-03T11:16:00;15.90;99.90
15922;DHT22;8060;50.948;3.146;2023-04-03T11:18:35;16.00;99.90
15922;DHT22;8060;50.948;3.146;2023-04-03T11:21:08;16.00;99.90
15922;DHT22;8060;50.948;3.146;2023-04-03T11:23:41;16.20;99.90
15922;DHT22;8060;50.948;3.146;2023-04-03T11:26:18;16.50;99.90
15922;DHT22;8060;50.948;3.146;2023-04-03T11:28:52;16.40;99.90
15922;DHT22;8060;50.948;3.146;2023-04-03T11:31:33;16.60;99.90
15922;DHT22;8060;50.948;3.146;2023-04-03T11:34:13;16.90;99.90
15922;DHT22;8060;50.948;3.146;2023-04-03T11:36:47;16.80;99.90
15922;DHT22;8060;50.948;3.146;2023-04-03T11:39:22;16.80;99.90
15922;DHT22;8060;50.948;3.146;2023-04-03T11:41:52;16.60;99.90
15922;DHT22;8060;50.948;3.146;2023-04-03T11:44:38;16.60;99.90
15922;DHT22;8060;50.948;3.146;2023-04-03T11:47:07;16.90;99.90
15922;DHT22;8060;50.948;3.146;2023-04-03T11:49:58;17.00;99.90
15922;DHT22;8060;50.948;3.146;2023-04-03T11:53:03;17.00;99.90
15922;DHT22;8060;50.948;3.146;2023-04-03T11:55:57;17.10;99.90
15922;DHT22;8060;50.948;3.146;2023-04-03T11:58:27;17.20;99.90
15922;DHT22;8060;50.948;3.146;2023-04-03T12:01:01;17.30;99.90
15922;DHT22;8060;50.948;3.146;2023-04-03T12:06:59;17.30;99.90
15922;DHT22;8060;50.948;3.146;2023-04-03T12:09:32;17.30;99.90
15922;DHT22;8060;50.948;3.146;2023-04-03T12:18:55;17.70;99.90
15922;DHT22;8060;50.948;3.146;2023-04-03T12:22:10;17.80;99.90
15922;DHT22;8060;50.948;3.146;2023-04-03T12:24:40;17.90;99.90
15922;DHT22;8060;50.948;3.146;2023-04-03T12:27:34;17.90;99.90
15922;DHT22;8060;50.948;3.146;2023-04-03T12:30:21;18.10;99.90
15922;DHT22;8060;50.948;3.146;2023-04-03T12:33:18;18.10;99.90
15922;DHT22;8060;50.948;3.146;2023-04-03T12:35:58;18.20;99.90
15922;DHT22;8060;50.948;3.146;2023-04-03T12:38:41;18.20;99.90
15922;DHT22;8060;50.948;3.146;2023-04-03T12:41:25;18.30;99.90
15922;DHT22;8060;50.948;3.146;2023-04-03T12:44:15;18.40;99.90
15922;DHT22;8060;50.948;3.146;2023-04-03T12:46:48;18.50;97.80
15922;DHT22;8060;50.948;3.146;2023-04-03T12:49:26;18.30;99.50
15922;DHT22;8060;50.948;3.146;2023-04-03T12:52:00;18.60;99.30
15922;DHT22;8060;50.948;3.146;2023-04-03T12:54:32;18.70;99.90
15922;DHT22;8060;50.948;3.146;2023-04-03T12:57:10;18.80;97.80
15922;DHT22;8060;50.948;3.146;2023-04-03T12:59:38;18.90;98.10
15922;DHT22;8060;50.948;3.146;2023-04-03T13:02:20;19.00;99.40
15922;DHT22;8060;50.948;3.146;2023-04-03T13:04:50;19.00;95.10
15922;DHT22;8060;50.948;3.146;2023-04-03T13:07:22;19.10;96.30
15922;DHT22;8060;50.948;3.146;2023-04-03T13:10:00;19.00;98.30
15922;DHT22;8060;50.948;3.146;2023-04-03T13:12:28;18.90;95.60
15922;DHT22;8060;50.948;3.146;2023-04-03T13:14:59;18.70;94.20
15922;DHT22;8060;50.948;3.146;2023-04-03T13:17:28;18.80;93.00
15922;DHT22;8060;50.948;3.146;2023-04-03T13:20:10;18.90;95.00
15922;DHT22;8060;50.948;3.146;2023-04-03T13:22:45;18.80;92.90
15922;DHT22;8060;50.948;3.146;2023-04-03T13:25:16;18.80;91.50
15922;DHT22;8060;50.948;3.146;2023-04-03T13:27:45;18.80;93.30
15922;DHT22;8060;50.948;3.146;2023-04-03T13:30:25;18.90;93.00
15922;DHT22;8060;50.948;3.146;2023-04-03T13:32:54;18.90;92.40
15922;DHT22;8060;50.948;3.146;2023-04-03T13:35:35;18.60;92.20
15922;DHT22;8060;50.948;3.146;2023-04-03T13:38:07;18.90;94.80
15922;DHT22;8060;50.948;3.146;2023-04-03T13:40:50;18.90;93.60
15922;DHT22;8060;50.948;3.146;2023-04-03T13:43:21;18.90;93.70
15922;DHT22;8060;50.948;3.146;2023-04-03T13:45:58;18.80;94.50
15922;DHT22;8060;50.948;3.146;2023-04-03T13:48:27;19.00;93.60
15922;DHT22;8060;50.948;3.146;2023-04-03T13:51:04;18.70;94.50
15922;DHT22;8060;50.948;3.146;2023-04-03T13:53:42;18.70;92.80
15922;DHT22;8060;50.948;3.146;2023-04-03T13:56:18;18.50;94.00
15922;DHT22;8060;50.948;3.146;2023-04-03T13:59:20;18.80;94.70
15922;DHT22;8060;50.948;3.146;2023-04-03T14:01:52;19.00;93.50
15922;DHT22;8060;50.948;3.146;2023-04-03T14:04:22;19.30;94.00
15922;DHT22;8060;50.948;3.146;2023-04-03T14:06:51;19.60;93.20
15922;DHT22;8060;50.948;3.146;2023-04-03T14:09:22;19.80;93.00
15922;DHT22;8060;50.948;3.146;2023-04-03T14:11:54;19.90;92.30
15922;DHT22;8060;50.948;3.146;2023-04-03T14:14:29;19.80;91.60
15922;DHT22;8060;50.948;3.146;2023-04-03T14:17:00;20.00;91.40
15922;DHT22;8060;50.948;3.146;2023-04-03T14:19:31;19.90;91.20
15922;DHT22;8060;50.948;3.146;2023-04-03T14:22:05;20.20;91.50
15922;DHT22;8060;50.948;3.146;2023-04-03T14:24:36;20.10;91.50
15922;DHT22;8060;50.948;3.146;2023-04-03T14:27:14;20.10;90.80
15922;DHT22;8060;50.948;3.146;2023-04-03T14:29:43;19.80;91.00
15922;DHT22;8060;50.948;3.146;2023-04-03T14:32:12;19.90;92.00
15922;DHT22;8060;50.948;3.146;2023-04-03T14:34:42;20.00;91.30
15922;DHT22;8060;50.948;3.146;2023-04-03T14:37:12;19.60;90.30
15922;DHT22;8060;50.948;3.146;2023-04-03T14:39:42;19.60;90.80
15922;DHT22;8060;50.948;3.146;2023-04-03T14:42:12;19.30;89.70
15922;DHT22;8060;50.948;3.146;2023-04-03T14:44:42;19.20;90.50
15922;DHT22;8060;50.948;3.146;2023-04-03T14:47:11;19.00;90.30
15922;DHT22;8060;50.948;3.146;2023-04-03T14:49:57;18.80;88.90
15922;DHT22;8060;50.948;3.146;2023-04-03T14:52:27;18.80;90.10
15922;DHT22;8060;50.948;3.146;2023-04-03T14:54:57;18.60;88.90
15922;DHT22;8060;50.948;3.146;2023-04-03T14:57:28;18.70;90.40
15922;DHT22;8060;50.948;3.146;2023-04-03T14:59:57;18.70;90.40
15922;DHT22;8060;50.948;3.146;2023-04-03T15:02:29;18.40;87.90
15922;DHT22;8060;50.948;3.146;2023-04-03T15:05:02;18.30;86.90
15922;DHT22;8060;50.948;3.146;2023-04-03T15:07:34;18.20;85.10
15922;DHT22;8060;50.948;3.146;2023-04-03T15:10:16;18.00;86.70
15922;DHT22;8060;50.948;3.146;2023-04-03T15:12:45;17.90;86.30
15922;DHT22;8060;50.948;3.146;2023-04-03T15:15:15;17.70;87.50
15922;DHT22;8060;50.948;3.146;2023-04-03T15:17:44;17.40;89.00
15922;DHT22;8060;50.948;3.146;2023-04-03T15:20:16;17.60;89.00
15922;DHT22;8060;50.948;3.146;2023-04-03T15:22:44;17.30;87.40
15922;DHT22;8060;50.948;3.146;2023-04-03T15:25:14;17.20;87.00
15922;DHT22;8060;50.948;3.146;2023-04-03T15:27:43;17.20;85.50
15922;DHT22;8060;50.948;3.146;2023-04-03T15:30:15;17.00;88.40
15922;DHT22;8060;50.948;3.146;2023-04-03T15:32:43;17.00;90.30
15922;DHT22;8060;50.948;3.146;2023-04-03T15:35:11;16.90;88.60
15922;DHT22;8060;50.948;3.146;2023-04-03T15:37:40;16.90;89.20
15922;DHT22;8060;50.948;3.146;2023-04-03T15:40:09;16.50;88.00
15922;DHT22;8060;50.948;3.146;2023-04-03T15:42:39;16.60;87.70
15922;DHT22;8060;50.948;3.146;2023-04-03T15:45:08;16.40;88.50
15922;DHT22;8060;50.948;3.146;2023-04-03T15:47:36;16.20;89.10
15922;DHT22;8060;50.948;3.146;2023-04-03T15:50:05;16.10;88.90
15922;DHT22;8060;50.948;3.146;2023-04-03T15:52:35;15.80;88.90
15922;DHT22;8060;50.948;3.146;2023-04-03T15:55:03;15.70;90.10
15922;DHT22;8060;50.948;3.146;2023-04-03T15:57:32;15.80;89.50
15922;DHT22;8060;50.948;3.146;2023-04-03T16:00:08;15.80;89.50
15922;DHT22;8060;50.948;3.146;2023-04-03T16:02:36;15.70;88.10
15922;DHT22;8060;50.948;3.146;2023-04-03T16:05:05;15.50;90.10
15922;DHT22;8060;50.948;3.146;2023-04-03T16:07:34;15.40;88.40
15922;DHT22;8060;50.948;3.146;2023-04-03T16:10:02;15.30;88.30
15922;DHT22;8060;50.948;3.146;2023-04-03T16:12:31;15.30;88.50
15922;DHT22;8060;50.948;3.146;2023-04-03T16:14:59;15.30;87.70
15922;DHT22;8060;50.948;3.146;2023-04-03T16:17:29;15.20;89.80
15922;DHT22;8060;50.948;3.146;2023-04-03T16:19:58;15.00;90.30
15922;DHT22;8060;50.948;3.146;2023-04-03T16:22:27;15.00;90.30
15922;DHT22;8060;50.948;3.146;2023-04-03T16:24:56;15.00;90.30
15922;DHT22;8060;50.948;3.146;2023-04-03T16:27:24;14.90;87.90
15922;DHT22;8060;50.948;3.146;2023-04-03T16:29:54;14.80;87.70
15922;DHT22;8060;50.948;3.146;2023-04-03T16:32:23;14.80;87.50
15922;DHT22;8060;50.948;3.146;2023-04-03T16:34:55;14.70;88.90
15922;DHT22;8060;50.948;3.146;2023-04-03T16:37:23;14.60;87.30
15922;DHT22;8060;50.948;3.146;2023-04-03T16:39:54;14.50;89.50
15922;DHT22;8060;50.948;3.146;2023-04-03T16:42:22;14.40;88.10
15922;DHT22;8060;50.948;3.146;2023-04-03T16:44:50;14.30;85.40
15922;DHT22;8060;50.948;3.146;2023-04-03T16:47:20;14.20;87.40
15922;DHT22;8060;50.948;3.146;2023-04-03T16:49:52;14.20;88.10
15922;DHT22;8060;50.948;3.146;2023-04-03T16:52:22;14.00;87.90
15922;DHT22;8060;50.948;3.146;2023-04-03T16:54:50;13.80;88.50
15922;DHT22;8060;50.948;3.146;2023-04-03T16:57:22;13.90;86.70
15922;DHT22;8060;50.948;3.146;2023-04-03T16:59:52;13.70;86.50
15922;DHT22;8060;50.948;3.146;2023-04-03T17:02:21;13.50;87.40
15922;DHT22;8060;50.948;3.146;2023-04-03T17:04:51;13.50;87.30
15922;DHT22;8060;50.948;3.146;2023-04-03T17:07:22;13.50;88.70
15922;DHT22;8060;50.948;3.146;2023-04-03T17:09:51;13.30;88.70
15922;DHT22;8060;50.948;3.146;2023-04-03T17:12:20;13.20;90.50
15922;DHT22;8060;50.948;3.146;2023-04-03T17:14:49;13.10;88.90
15922;DHT22;8060;50.948;3.146;2023-04-03T17:17:21;12.90;88.00
15922;DHT22;8060;50.948;3.146;2023-04-03T17:19:51;13.00;90.00
15922;DHT22;8060;50.948;3.146;2023-04-03T17:22:22;12.90;89.40
15922;DHT22;8060;50.948;3.146;2023-04-03T17:24:50;12.90;90.80
15922;DHT22;8060;50.948;3.146;2023-04-03T17:27:18;12.80;89.80
15922;DHT22;8060;50.948;3.146;2023-04-03T17:29:46;12.80;90.20
15922;DHT22;8060;50.948;3.146;2023-04-03T17:32:14;12.70;90.30
15922;DHT22;8060;50.948;3.146;2023-04-03T17:34:44;12.60;90.20
15922;DHT22;8060;50.948;3.146;2023-04-03T17:37:13;12.60;90.60
15922;DHT22;8060;50.948;3.146;2023-04-03T17:39:42;12.50;91.00
15922;DHT22;8060;50.948;3.146;2023-04-03T17:42:12;12.50;91.50
15922;DHT22;8060;50.948;3.146;2023-04-03T17:44:40;12.40;90.90
15922;DHT22;8060;50.948;3.146;2023-04-03T17:47:09;12.30;90.80
15922;DHT22;8060;50.948;3.146;2023-04-03T17:49:37;12.40;91.60
